Time;durP1;ratioP1;P1;durP2;ratioP2;P2;SDS_P1;SDS_P2;PMS_P1;PMS_P2;Temp;Humidity;BMP_temperature;BMP_pressure;BME280_temperature;BME280_humidity;BME280_pressure;Samples;Min_cycle;Max_cycle;Signal;HPM_P1;HPM_P2
2022/01/28 00:00:19;;;;;;;9.37;4.00;;;5.40;99.90;;;;;;5021655;28;20470;-50
2022/01/28 00:02:55;;;;;;;14.73;3.33;;;5.50;99.90;;;;;;5023893;28;20458;-51
2022/01/28 00:05:22;;;;;;;10.57;2.87;;;5.50;99.90;;;;;;5028591;28;21068;-51
2022/01/28 00:07:49;;;;;;;8.87;3.83;;;5.50;99.90;;;;;;5030542;28;21018;-50
2022/01/28 00:10:16;;;;;;;13.47;3.80;;;5.40;99.90;;;;;;5026983;28;20551;-51
2022/01/28 00:13:02;;;;;;;12.67;3.50;;;5.50;99.90;;;;;;5028955;28;20459;-51
2022/01/28 00:15:34;;;;;;;11.23;3.30;;;5.50;99.90;;;;;;5027245;28;20458;-51
2022/01/28 00:21:09;;;;;;;13.47;3.63;;;5.50;99.90;;;;;;5019621;28;20483;-51
2022/01/28 00:37:37;;;;;;;16.63;4.27;;;5.60;99.90;;;;;;5027509;28;20572;-50
2022/01/28 00:40:05;;;;;;;16.53;3.10;;;5.60;99.90;;;;;;5029146;28;20952;-51
2022/01/28 00:42:32;;;;;;;22.70;4.67;;;5.50;99.90;;;;;;5019200;28;20530;-51
2022/01/28 00:44:58;;;;;;;8.37;3.30;;;5.60;99.90;;;;;;5027772;28;20509;-52
2022/01/28 00:47:25;;;;;;;10.93;3.87;;;5.60;99.90;;;;;;5030472;28;20486;-50
2022/01/28 00:49:53;;;;;;;22.30;4.20;;;5.60;99.90;;;;;;5027920;28;20494;-51
2022/01/28 00:52:19;;;;;;;15.67;4.00;;;5.60;99.90;;;;;;5025183;28;20541;-51
2022/01/28 00:54:46;;;;;;;16.13;4.77;;;5.60;99.90;;;;;;5026503;28;20528;-52
2022/01/28 00:57:12;;;;;;;10.70;3.67;;;5.60;99.90;;;;;;5028730;28;20501;-50
2022/01/28 00:59:39;;;;;;;14.00;3.70;;;5.60;99.90;;;;;;5020889;28;20526;-52
2022/01/28 01:02:06;;;;;;;9.40;3.17;;;5.60;99.90;;;;;;5022011;28;20494;-52
2022/01/28 01:04:32;;;;;;;18.63;4.57;;;5.60;99.90;;;;;;5028870;28;20482;-50
2022/01/28 01:07:01;;;;;;;17.60;3.53;;;5.60;99.90;;;;;;5028739;28;20988;-50
2022/01/28 01:09:27;;;;;;;14.73;4.50;;;5.60;99.90;;;;;;5027851;28;20485;-50
2022/01/28 01:11:54;;;;;;;15.83;4.50;;;5.60;99.90;;;;;;5024640;28;21070;-50
2022/01/28 01:14:20;;;;;;;17.23;4.57;;;5.60;99.90;;;;;;5028938;28;20454;-50
2022/01/28 01:17:02;;;;;;;17.93;3.70;;;5.50;99.90;;;;;;5025250;28;20494;-50
2022/01/28 01:19:33;;;;;;;19.17;4.47;;;5.50;99.90;;;;;;5024338;28;20474;-51
2022/01/28 01:22:01;;;;;;;32.77;4.83;;;5.60;99.90;;;;;;5033165;22;20561;-50
2022/01/28 01:24:35;;;;;;;20.40;4.43;;;5.60;99.90;;;;;;5007487;28;20895;-50
2022/01/28 01:27:01;;;;;;;16.93;4.60;;;5.50;99.90;;;;;;5010865;28;20868;-51
2022/01/28 01:29:28;;;;;;;16.60;4.57;;;5.60;99.90;;;;;;5009746;28;20462;-50
2022/01/28 01:32:01;;;;;;;15.33;3.83;;;5.50;99.90;;;;;;5006642;28;20490;-50
2022/01/28 01:34:28;;;;;;;14.00;3.70;;;5.50;99.90;;;;;;5010085;28;20539;-50
2022/01/28 01:36:55;;;;;;;12.03;4.70;;;5.50;99.90;;;;;;5010637;28;20526;-51
2022/01/28 01:39:26;;;;;;;15.13;3.80;;;5.50;99.90;;;;;;5008960;28;20562;-50
2022/01/28 01:41:57;;;;;;;10.60;3.80;;;5.40;99.90;;;;;;5009062;28;21078;-50
2022/01/28 01:44:34;;;;;;;15.13;5.30;;;5.50;99.90;;;;;;5003507;28;20459;-50
2022/01/28 01:52:01;;;;;;;8.30;3.63;;;5.50;99.90;;;;;;5004106;28;20451;-50
2022/01/28 01:52:51;;;;;;;18.63;4.20;;;5.50;99.90;;;;;;5022211;28;20494;-50
2022/01/28 01:55:20;;;;;;;12.23;3.83;;;5.50;99.90;;;;;;5021635;28;20486;-51
2022/01/28 01:57:46;;;;;;;13.43;3.60;;;5.50;99.90;;;;;;5028165;28;20498;-51
2022/01/28 02:00:15;;;;;;;10.17;3.80;;;5.50;99.90;;;;;;5016855;28;20472;-50
2022/01/28 02:02:42;;;;;;;14.60;3.90;;;5.50;99.90;;;;;;5009643;28;20670;-50
2022/01/28 02:05:09;;;;;;;9.90;3.37;;;5.50;99.90;;;;;;5009918;28;20566;-50
2022/01/28 02:07:38;;;;;;;12.80;3.00;;;5.50;99.90;;;;;;5005423;28;20960;-51
2022/01/28 02:10:05;;;;;;;13.87;4.33;;;5.40;99.90;;;;;;5007154;28;20491;-50
2022/01/28 02:12:46;;;;;;;18.50;4.20;;;5.40;99.90;;;;;;5011782;28;20566;-51
2022/01/28 02:15:12;;;;;;;19.33;4.23;;;5.40;99.90;;;;;;5010308;28;20555;-50
2022/01/28 02:17:39;;;;;;;9.43;3.40;;;5.40;99.90;;;;;;5010167;28;20546;-50
2022/01/28 02:20:09;;;;;;;20.53;4.43;;;5.40;99.90;;;;;;5004636;28;21001;-50
2022/01/28 02:22:37;;;;;;;13.13;4.70;;;5.30;99.90;;;;;;5007533;28;20494;-50
2022/01/28 02:25:04;;;;;;;17.47;4.10;;;5.30;99.90;;;;;;5010049;28;20492;-50
2022/01/28 02:27:31;;;;;;;11.37;3.20;;;5.30;99.90;;;;;;5002791;28;20495;-50
2022/01/28 02:29:58;;;;;;;12.23;3.73;;;5.30;99.90;;;;;;4995759;28;20464;-50
2022/01/28 02:32:24;;;;;;;14.33;4.10;;;5.30;99.90;;;;;;5008468;28;20563;-50
2022/01/28 02:34:51;;;;;;;12.27;3.80;;;5.20;99.90;;;;;;5006138;28;20557;-50
2022/01/28 02:37:17;;;;;;;19.13;3.63;;;5.20;99.90;;;;;;5009966;28;20488;-50
2022/01/28 02:39:45;;;;;;;15.10;3.87;;;5.20;99.90;;;;;;5008052;28;20877;-49
2022/01/28 02:42:20;;;;;;;19.63;3.70;;;5.20;99.90;;;;;;5008190;28;20475;-50
2022/01/28 02:44:50;;;;;;;12.67;3.77;;;5.20;99.90;;;;;;5006828;28;20456;-50
2022/01/28 02:47:28;;;;;;;14.53;3.47;;;5.10;99.90;;;;;;5009178;28;20488;-50
2022/01/28 02:49:55;;;;;;;12.00;4.30;;;5.10;99.90;;;;;;5010918;28;20452;-51
2022/01/28 02:52:31;;;;;;;15.10;3.93;;;5.10;99.90;;;;;;5009287;28;20537;-50
2022/01/28 02:55:00;;;;;;;15.67;3.70;;;5.10;99.90;;;;;;5008930;28;20459;-51
2022/01/28 02:57:27;;;;;;;10.80;4.10;;;5.10;99.90;;;;;;5006325;28;20470;-50
2022/01/28 02:59:54;;;;;;;19.93;4.70;;;5.10;99.90;;;;;;5007141;28;20483;-50
2022/01/28 03:02:20;;;;;;;16.83;4.17;;;5.10;99.90;;;;;;5009183;28;20582;-50
2022/01/28 03:05:18;;;;;;;13.13;3.77;;;5.10;99.90;;;;;;5007610;28;20533;-50
2022/01/28 03:07:44;;;;;;;18.70;4.30;;;5.00;99.90;;;;;;5007248;28;20993;-50
2022/01/28 03:10:29;;;;;;;13.80;3.80;;;5.10;99.90;;;;;;5008597;28;20480;-51
2022/01/28 03:13:16;;;;;;;11.90;4.27;;;5.10;99.90;;;;;;5012576;28;20570;-51
2022/01/28 03:15:50;;;;;;;17.70;5.20;;;5.10;99.90;;;;;;5007893;28;20483;-50
2022/01/28 03:18:20;;;;;;;20.30;4.20;;;5.10;99.90;;;;;;5010806;28;20509;-51
2022/01/28 03:20:56;;;;;;;18.50;3.57;;;5.10;99.90;;;;;;5011068;28;20467;-51
2022/01/28 03:23:22;;;;;;;20.60;5.27;;;5.10;99.90;;;;;;5013450;28;20487;-51
2022/01/28 03:25:50;;;;;;;22.73;5.37;;;5.10;99.90;;;;;;5021928;28;20755;-51
2022/01/28 03:28:20;;;;;;;16.10;3.87;;;5.10;99.90;;;;;;5019026;28;20451;-50
2022/01/28 03:30:46;;;;;;;21.43;4.20;;;5.10;99.90;;;;;;5018209;28;20476;-54
2022/01/28 03:33:13;;;;;;;20.20;5.50;;;5.10;99.90;;;;;;5020690;28;20479;-51
2022/01/28 03:35:39;;;;;;;11.20;4.10;;;5.10;99.90;;;;;;5013819;28;20998;-50
2022/01/28 03:38:10;;;;;;;15.77;4.20;;;5.10;99.90;;;;;;5011917;28;20977;-50
2022/01/28 03:40:37;;;;;;;12.53;5.17;;;5.10;99.90;;;;;;5011785;28;20464;-50
2022/01/28 03:43:06;;;;;;;17.17;5.37;;;5.10;99.90;;;;;;5008635;28;20480;-50
2022/01/28 03:45:33;;;;;;;16.90;3.90;;;5.10;99.90;;;;;;5010430;28;20488;-52
2022/01/28 03:47:59;;;;;;;19.73;4.40;;;5.10;99.90;;;;;;5011039;28;20499;-50
2022/01/28 03:50:26;;;;;;;15.17;4.80;;;5.10;99.90;;;;;;5010670;28;20558;-51
2022/01/28 03:52:53;;;;;;;22.20;4.87;;;5.10;99.90;;;;;;5008386;28;20515;-50
2022/01/28 03:55:19;;;;;;;12.47;4.20;;;5.10;99.90;;;;;;5009977;28;21003;-51
2022/01/28 03:57:46;;;;;;;12.63;4.07;;;5.10;99.90;;;;;;5001174;28;20973;-50
2022/01/28 04:00:15;;;;;;;13.60;3.60;;;5.10;99.90;;;;;;5009941;28;20570;-50
2022/01/28 04:02:44;;;;;;;14.77;4.50;;;5.20;99.90;;;;;;5015909;28;20471;-51
2022/01/28 04:13:45;;;;;;;15.93;4.17;;;5.20;99.90;;;;;;4996588;28;20459;-50
2022/01/28 04:16:28;;;;;;;13.43;3.60;;;5.20;99.90;;;;;;5008624;28;20945;-51
2022/01/28 04:18:56;;;;;;;10.67;3.80;;;5.10;99.90;;;;;;5012588;28;21043;-50
2022/01/28 04:21:22;;;;;;;17.77;4.77;;;5.20;99.90;;;;;;5007829;28;21205;-50
2022/01/28 04:23:49;;;;;;;16.33;4.57;;;5.20;99.90;;;;;;5005782;28;20495;-50
2022/01/28 04:26:15;;;;;;;11.83;3.80;;;5.20;99.90;;;;;;5006271;28;20498;-50
2022/01/28 04:28:42;;;;;;;13.03;3.87;;;5.20;99.90;;;;;;5010920;28;20448;-50
2022/01/28 04:31:09;;;;;;;9.00;3.90;;;5.10;99.90;;;;;;5008392;28;21040;-51
2022/01/28 04:33:36;;;;;;;11.63;3.90;;;5.20;99.90;;;;;;5011382;28;21039;-50
2022/01/28 04:36:04;;;;;;;11.63;3.83;;;5.20;99.90;;;;;;5004763;28;20519;-50
2022/01/28 04:38:38;;;;;;;13.90;3.73;;;5.20;99.90;;;;;;5007953;28;20534;-50
2022/01/28 04:41:12;;;;;;;13.17;3.33;;;5.20;99.90;;;;;;5010198;28;21019;-50
2022/01/28 04:43:43;;;;;;;12.20;3.17;;;5.20;99.90;;;;;;5010702;28;20459;-51
2022/01/28 04:46:16;;;;;;;16.47;4.83;;;5.20;99.90;;;;;;5005925;28;20472;-51
2022/01/28 04:48:51;;;;;;;16.20;3.90;;;5.30;99.90;;;;;;5009378;28;20456;-51
2022/01/28 04:51:28;;;;;;;10.80;3.73;;;5.30;99.90;;;;;;5007083;28;20463;-51
2022/01/28 04:54:07;;;;;;;13.60;4.23;;;5.20;99.90;;;;;;5003248;28;20463;-51
2022/01/28 04:56:47;;;;;;;15.03;4.17;;;5.30;99.90;;;;;;5007513;28;20486;-50
2022/01/28 04:59:31;;;;;;;16.23;4.80;;;5.20;99.90;;;;;;5008410;28;20577;-50
2022/01/28 05:05:07;;;;;;;13.97;4.10;;;5.30;99.90;;;;;;5007586;28;20849;-50
2022/01/28 05:07:45;;;;;;;15.47;4.63;;;5.20;99.90;;;;;;5000906;28;21023;-50
2022/01/28 05:10:44;;;;;;;9.73;3.30;;;5.30;99.90;;;;;;5009195;28;20461;-50
2022/01/28 05:24:58;;;;;;;10.70;3.63;;;5.30;98.70;;;;;;5006733;28;20462;-50
2022/01/28 05:27:25;;;;;;;12.67;4.80;;;5.30;99.90;;;;;;5008185;28;20946;-50
2022/01/28 05:29:52;;;;;;;15.77;3.43;;;5.30;99.90;;;;;;5006371;28;20494;-51
2022/01/28 05:32:19;;;;;;;15.57;3.73;;;5.30;99.90;;;;;;5010236;28;20599;-51
2022/01/28 05:34:45;;;;;;;11.43;4.60;;;5.30;27.70;;;;;;5012682;28;20530;-50
2022/01/28 05:37:13;;;;;;;15.77;4.10;;;5.40;22.90;;;;;;5013138;28;20459;-50
2022/01/28 05:39:40;;;;;;;14.43;3.90;;;5.40;22.10;;;;;;5007039;28;20543;-50
2022/01/28 05:42:07;;;;;;;10.37;3.83;;;5.30;82.70;;;;;;5011921;28;20570;-51
2022/01/28 05:44:33;;;;;;;19.73;4.37;;;5.30;99.90;;;;;;5012844;28;20499;-50
2022/01/28 05:47:03;;;;;;;21.53;4.53;;;5.30;24.70;;;;;;5013432;28;20502;-50
2022/01/28 05:49:30;;;;;;;10.67;3.10;;;5.30;75.40;;;;;;5009193;28;20488;-51
2022/01/28 05:51:56;;;;;;;18.40;4.20;;;5.30;29.80;;;;;;5005220;28;20490;-50
2022/01/28 05:54:24;;;;;;;20.83;3.70;;;5.30;20.50;;;;;;5013216;28;20499;-51
2022/01/28 05:56:51;;;;;;;11.80;3.80;;;5.30;24.00;;;;;;5007331;28;21040;-50
2022/01/28 05:59:19;;;;;;;20.87;4.53;;;5.30;24.10;;;;;;5008499;28;20578;-51
2022/01/28 06:01:45;;;;;;;16.83;5.70;;;5.30;21.10;;;;;;5009776;28;20480;-51
2022/01/28 06:04:12;;;;;;;10.90;3.93;;;5.30;23.50;;;;;;5012471;28;20487;-51
2022/01/28 06:06:38;;;;;;;13.30;4.10;;;5.30;21.60;;;;;;5012435;28;20566;-50
2022/01/28 06:09:05;;;;;;;13.90;3.87;;;5.30;27.10;;;;;;5013215;28;20557;-51
2022/01/28 06:11:33;;;;;;;12.90;4.00;;;5.30;22.30;;;;;;5013364;28;21031;-51
2022/01/28 06:14:00;;;;;;;19.27;4.30;;;5.30;20.20;;;;;;5007266;28;20968;-49
2022/01/28 06:16:26;;;;;;;16.50;3.73;;;5.30;86.30;;;;;;5008280;28;20482;-52
2022/01/28 06:18:53;;;;;;;15.23;3.83;;;5.40;99.90;;;;;;5008492;28;20495;-51
2022/01/28 06:21:20;;;;;;;13.17;3.97;;;5.30;99.90;;;;;;5017705;28;20483;-52
2022/01/28 06:23:46;;;;;;;22.20;4.90;;;5.40;20.30;;;;;;5009138;28;20875;-51
2022/01/28 06:26:13;;;;;;;15.70;3.93;;;5.40;33.00;;;;;;5008220;28;21058;-50
2022/01/28 06:28:41;;;;;;;11.03;4.07;;;5.30;31.70;;;;;;5007338;28;20455;-50
2022/01/28 06:31:07;;;;;;;18.63;5.27;;;5.30;21.10;;;;;;5002302;28;21057;-50
2022/01/28 06:33:34;;;;;;;10.60;4.00;;;5.20;26.50;;;;;;4999812;28;20542;-50
2022/01/28 06:36:02;;;;;;;13.80;5.60;;;5.20;80.60;;;;;;5001625;28;20459;-50
2022/01/28 06:38:28;;;;;;;13.70;3.60;;;5.20;88.00;;;;;;5001881;28;20460;-50
2022/01/28 06:40:55;;;;;;;21.43;5.50;;;5.10;71.70;;;;;;5001808;28;20574;-49
2022/01/28 06:43:22;;;;;;;22.80;4.47;;;5.10;87.60;;;;;;5004217;28;20578;-50
2022/01/28 06:45:49;;;;;;;20.53;4.10;;;5.10;24.70;;;;;;5002578;28;20877;-50
2022/01/28 06:48:16;;;;;;;18.93;4.90;;;5.00;86.20;;;;;;5004421;28;20579;-50
2022/01/28 06:50:45;;;;;;;13.80;4.50;;;5.00;80.70;;;;;;5010502;28;20511;-50
2022/01/28 06:53:12;;;;;;;9.43;3.67;;;5.00;93.40;;;;;;5017239;28;21014;-50
2022/01/28 06:55:39;;;;;;;22.57;7.27;;;4.90;22.30;;;;;;5013707;28;20502;-51
2022/01/28 06:58:07;;;;;;;11.83;4.03;;;4.90;99.90;;;;;;5001002;28;20904;-50
2022/01/28 07:00:37;;;;;;;10.67;4.13;;;5.00;99.90;;;;;;5000550;28;20941;-50
2022/01/28 07:03:05;;;;;;;54.70;5.27;;;4.90;99.90;;;;;;5002462;28;20486;-50
2022/01/28 07:05:31;;;;;;;13.77;5.17;;;4.90;90.30;;;;;;5016729;28;20464;-50
2022/01/28 07:07:58;;;;;;;15.10;3.60;;;4.90;97.00;;;;;;5012471;28;20550;-49
2022/01/28 07:10:25;;;;;;;14.50;4.23;;;4.80;87.70;;;;;;5017822;28;20475;-50
2022/01/28 07:12:54;;;;;;;16.17;5.17;;;4.80;99.90;;;;;;5013063;28;20503;-51
2022/01/28 07:15:21;;;;;;;12.97;4.20;;;4.80;99.90;;;;;;4997183;28;20522;-52
2022/01/28 07:17:48;;;;;;;13.80;4.10;;;4.70;99.90;;;;;;4993995;28;20468;-51
2022/01/28 07:20:17;;;;;;;16.97;4.90;;;4.70;99.90;;;;;;5009264;28;21312;-51
2022/01/28 07:22:44;;;;;;;12.57;4.33;;;4.70;98.40;;;;;;5033963;22;20490;-52
2022/01/28 07:25:11;;;;;;;17.40;3.70;;;4.60;99.90;;;;;;5029652;28;20998;-52
2022/01/28 07:27:37;;;;;;;10.37;4.10;;;4.60;99.90;;;;;;5025917;28;20490;-51
2022/01/28 07:30:06;;;;;;;10.70;4.07;;;4.50;99.90;;;;;;5029565;28;20466;-52
2022/01/28 07:32:32;;;;;;;12.77;4.73;;;4.50;99.90;;;;;;5021662;28;20516;-52
2022/01/28 07:34:59;;;;;;;16.50;4.00;;;4.40;99.90;;;;;;5028585;28;20462;-52
2022/01/28 07:37:27;;;;;;;19.97;3.97;;;4.40;99.90;;;;;;5030041;28;20553;-52
2022/01/28 07:39:54;;;;;;;18.20;4.30;;;4.40;99.90;;;;;;5028882;28;20578;-52
2022/01/28 07:42:20;;;;;;;12.03;3.33;;;4.40;99.90;;;;;;5026754;28;21106;-52
2022/01/28 07:44:47;;;;;;;18.90;4.20;;;4.50;99.90;;;;;;5030405;28;20993;-52
2022/01/28 07:47:14;;;;;;;20.37;4.60;;;4.50;99.90;;;;;;5029200;28;21029;-52
2022/01/28 07:49:40;;;;;;;16.80;4.70;;;4.50;99.90;;;;;;5004728;28;20467;-51
2022/01/28 07:52:07;;;;;;;15.73;4.37;;;4.50;99.90;;;;;;4996495;28;20496;-52
2022/01/28 07:54:35;;;;;;;17.13;4.00;;;4.50;99.90;;;;;;5000853;28;20463;-52
2022/01/28 07:57:02;;;;;;;22.70;4.70;;;4.70;99.90;;;;;;4999769;28;20557;-51
2022/01/28 07:59:29;;;;;;;12.30;4.17;;;4.80;99.90;;;;;;5000583;28;20550;-50
2022/01/28 08:01:55;;;;;;;14.93;4.07;;;4.80;92.60;;;;;;5002617;28;20462;-50
2022/01/28 08:04:22;;;;;;;14.93;4.93;;;4.60;99.90;;;;;;5007281;28;20460;-50
2022/01/28 08:06:48;;;;;;;26.13;4.67;;;4.60;99.90;;;;;;5004521;28;20470;-51
2022/01/28 08:09:15;;;;;;;18.30;5.40;;;4.60;99.90;;;;;;5000627;28;20481;-51
2022/01/28 08:11:43;;;;;;;21.97;4.40;;;4.80;23.20;;;;;;5003207;28;21508;-51
2022/01/28 08:14:10;;;;;;;13.90;4.03;;;4.90;20.70;;;;;;5007535;28;20483;-51
2022/01/28 08:16:36;;;;;;;13.30;3.70;;;4.90;23.90;;;;;;5000986;28;20545;-51
2022/01/28 08:19:03;;;;;;;16.70;4.87;;;5.00;34.80;;;;;;5002278;28;20547;-51
2022/01/28 08:21:29;;;;;;;19.50;5.10;;;4.90;26.00;;;;;;5003922;28;20482;-50
2022/01/28 08:23:56;;;;;;;17.23;4.90;;;5.10;31.30;;;;;;5003496;28;20494;-50
2022/01/28 08:26:23;;;;;;;12.60;4.50;;;5.40;41.70;;;;;;5008428;28;20540;-49
2022/01/28 08:28:51;;;;;;;21.23;4.77;;;5.40;50.00;;;;;;5002981;28;20463;-50
2022/01/28 08:31:18;;;;;;;19.23;4.93;;;5.60;68.60;;;;;;5006012;28;20594;-51
2022/01/28 08:33:45;;;;;;;20.00;4.73;;;5.70;62.10;;;;;;5022122;28;20903;-50
2022/01/28 08:36:12;;;;;;;18.80;5.30;;;5.70;50.80;;;;;;5030224;28;20494;-51
2022/01/28 08:38:44;;;;;;;13.40;5.20;;;5.40;55.80;;;;;;5019509;28;20846;-51
2022/01/28 08:41:12;;;;;;;22.27;5.90;;;5.70;62.30;;;;;;5023197;28;20511;-52
2022/01/28 08:43:39;;;;;;;15.60;5.33;;;5.80;65.70;;;;;;5027659;28;21112;-52
2022/01/28 08:46:07;;;;;;;16.30;7.30;;;5.90;77.20;;;;;;5023290;28;20553;-52
2022/01/28 08:48:34;;;;;;;23.90;4.93;;;6.00;80.20;;;;;;5024071;28;20558;-52
2022/01/28 08:51:01;;;;;;;11.13;3.97;;;6.10;92.50;;;;;;5022235;28;20910;-52
2022/01/28 08:53:27;;;;;;;20.83;4.63;;;5.30;66.10;;;;;;5016684;28;21113;-51
2022/01/28 08:55:54;;;;;;;15.83;5.43;;;5.70;66.60;;;;;;5025315;28;20637;-52
2022/01/28 08:58:22;;;;;;;20.40;5.40;;;5.90;89.60;;;;;;5023826;28;20944;-52
2022/01/28 09:00:50;;;;;;;15.33;4.83;;;6.20;90.50;;;;;;5008768;28;20498;-52
2022/01/28 09:03:20;;;;;;;18.50;4.73;;;6.10;99.60;;;;;;5025195;28;20480;-52
2022/01/28 09:05:48;;;;;;;20.80;5.30;;;6.50;99.90;;;;;;5024078;28;20963;-52
2022/01/28 09:08:15;;;;;;;17.87;4.70;;;6.90;99.90;;;;;;5031961;28;20477;-52
2022/01/28 09:10:45;;;;;;;17.37;4.70;;;6.70;99.90;;;;;;5029052;28;20463;-52
2022/01/28 09:13:23;;;;;;;22.83;4.80;;;7.40;99.90;;;;;;5030315;28;20501;-53
2022/01/28 09:15:52;;;;;;;18.67;5.30;;;7.40;99.90;;;;;;5032580;28;20558;-51
2022/01/28 09:18:20;;;;;;;15.90;4.43;;;6.50;99.90;;;;;;5029665;28;21185;-52
2022/01/28 09:20:48;;;;;;;9.23;3.40;;;6.40;99.90;;;;;;5025067;28;20482;-52
2022/01/28 09:23:15;;;;;;;12.70;4.70;;;6.00;95.80;;;;;;5029091;28;20493;-53
2022/01/28 09:25:42;;;;;;;14.47;4.27;;;5.90;91.90;;;;;;5032235;28;20928;-53
2022/01/28 09:28:09;;;;;;;12.60;4.30;;;5.80;91.10;;;;;;5032125;28;22335;-53
2022/01/28 09:30:35;;;;;;;24.37;4.60;;;6.10;92.80;;;;;;5034340;28;20443;-53
2022/01/28 09:33:03;;;;;;;19.33;5.60;;;6.10;88.60;;;;;;5032335;28;20532;-53
2022/01/28 09:35:31;;;;;;;13.00;4.53;;;5.90;86.10;;;;;;5033655;28;20474;-53
2022/01/28 09:37:58;;;;;;;19.17;4.50;;;5.90;84.20;;;;;;5034563;28;20465;-53
2022/01/28 09:40:24;;;;;;;23.03;5.10;;;5.70;73.70;;;;;;5034681;28;20573;-52
2022/01/28 09:42:52;;;;;;;14.33;4.40;;;5.70;66.00;;;;;;5034455;28;21010;-53
2022/01/28 09:45:23;;;;;;;13.30;5.37;;;5.70;73.10;;;;;;5034373;28;20455;-52
2022/01/28 09:47:53;;;;;;;10.67;5.00;;;5.60;69.40;;;;;;5034609;28;20451;-52
2022/01/28 09:50:21;;;;;;;13.80;4.20;;;5.70;71.40;;;;;;5033832;28;21027;-52
2022/01/28 09:52:49;;;;;;;16.67;3.67;;;5.60;73.80;;;;;;5034028;28;20987;-52
2022/01/28 09:55:16;;;;;;;15.20;4.10;;;5.70;69.80;;;;;;5033987;28;20539;-52
2022/01/28 09:57:43;;;;;;;15.17;4.90;;;5.80;85.20;;;;;;5034114;28;20446;-52
2022/01/28 10:00:11;;;;;;;17.63;4.63;;;6.00;97.10;;;;;;5033248;28;20976;-52
2022/01/28 10:02:48;;;;;;;15.60;5.23;;;6.30;91.40;;;;;;5032739;28;20909;-52
2022/01/28 10:05:20;;;;;;;21.20;5.33;;;6.10;81.30;;;;;;5026776;28;20466;-51
2022/01/28 10:08:07;;;;;;;16.60;4.70;;;6.10;95.50;;;;;;5033633;28;20455;-52
2022/01/28 10:10:48;;;;;;;12.57;4.57;;;6.30;99.60;;;;;;5031077;28;20840;-52
2022/01/28 10:13:19;;;;;;;24.67;6.50;;;6.20;92.30;;;;;;5030904;28;20483;-52
2022/01/28 10:16:02;;;;;;;30.50;5.60;;;6.20;94.60;;;;;;5030107;28;20463;-52
2022/01/28 10:18:49;;;;;;;22.07;5.47;;;6.10;92.20;;;;;;5027120;28;20951;-52
2022/01/28 10:21:31;;;;;;;17.27;5.60;;;5.90;84.10;;;;;;5030896;28;20521;-52
2022/01/28 10:24:16;;;;;;;14.40;4.50;;;5.70;72.30;;;;;;5032962;28;20510;-52
2022/01/28 10:26:45;;;;;;;20.83;5.20;;;5.90;69.30;;;;;;5033441;28;20478;-52
2022/01/28 10:29:14;;;;;;;18.27;7.20;;;6.70;99.90;;;;;;5033096;28;20447;-52
2022/01/28 10:31:43;;;;;;;12.33;4.83;;;7.00;99.90;;;;;;5033678;28;20443;-52
2022/01/28 10:34:12;;;;;;;14.80;4.20;;;6.70;99.90;;;;;;5031898;28;21169;-52
2022/01/28 10:36:39;;;;;;;13.37;4.30;;;6.60;99.90;;;;;;5025413;28;20479;-52
2022/01/28 10:39:13;;;;;;;18.67;4.10;;;7.00;99.90;;;;;;5030829;28;20530;-53
2022/01/28 10:41:49;;;;;;;12.30;3.93;;;7.10;99.90;;;;;;5028342;28;20570;-52
2022/01/28 10:44:16;;;;;;;17.60;4.60;;;7.00;99.90;;;;;;5032762;28;20533;-52
2022/01/28 10:46:50;;;;;;;23.40;6.20;;;7.00;99.90;;;;;;5032689;28;20447;-52
2022/01/28 10:49:16;;;;;;;15.93;4.30;;;7.10;99.90;;;;;;5021802;28;20994;-52
2022/01/28 10:51:45;;;;;;;11.93;4.13;;;7.30;99.90;;;;;;5033164;28;20838;-52
2022/01/28 10:54:15;;;;;;;13.57;4.10;;;7.90;99.90;;;;;;5025662;28;20517;-52
2022/01/28 10:56:54;;;;;;;15.60;3.90;;;8.20;99.90;;;;;;5032861;28;20565;-52
2022/01/28 10:59:23;;;;;;;11.80;4.13;;;7.50;99.90;;;;;;5021614;28;20464;-52
2022/01/28 11:01:51;;;;;;;29.77;13.77;;;8.80;99.90;;;;;;5030300;28;20528;-53
2022/01/28 11:04:19;;;;;;;21.73;5.90;;;9.90;99.90;;;;;;5033973;28;20454;-52
2022/01/28 11:06:47;;;;;;;22.70;7.10;;;8.90;99.90;;;;;;5031684;28;20478;-52
2022/01/28 11:09:17;;;;;;;19.53;5.67;;;8.90;99.90;;;;;;5032161;28;20478;-52
2022/01/28 11:11:45;;;;;;;17.83;4.10;;;8.50;99.90;;;;;;5028253;28;20455;-52
2022/01/28 11:14:12;;;;;;;21.03;4.30;;;7.90;99.90;;;;;;5032619;28;20554;-52
2022/01/28 11:16:39;;;;;;;14.43;4.60;;;7.70;99.90;;;;;;5032212;28;20470;-52
2022/01/28 11:19:09;;;;;;;16.50;4.30;;;7.50;99.90;;;;;;5032502;28;21013;-52
2022/01/28 11:21:56;;;;;;;24.10;4.97;;;7.00;99.90;;;;;;5032551;28;20817;-52
2022/01/28 11:24:36;;;;;;;18.23;4.43;;;7.10;99.90;;;;;;5028913;28;20447;-52
2022/01/28 11:27:10;;;;;;;11.23;3.77;;;6.80;99.90;;;;;;5031281;28;20581;-52
2022/01/28 11:29:37;;;;;;;11.50;4.00;;;6.80;99.90;;;;;;5030531;28;20470;-53
2022/01/28 11:32:14;;;;;;;14.90;3.73;;;6.50;99.90;;;;;;5026118;28;20436;-52
2022/01/28 11:34:55;;;;;;;11.93;3.50;;;6.60;99.90;;;;;;5028085;28;20508;-53
2022/01/28 11:37:27;;;;;;;10.40;3.37;;;6.50;99.90;;;;;;5032552;28;21207;-53
2022/01/28 11:40:06;;;;;;;11.20;4.10;;;6.60;99.90;;;;;;5032724;28;20471;-53
2022/01/28 11:42:34;;;;;;;13.60;3.23;;;6.70;96.10;;;;;;5028415;28;20893;-53
2022/01/28 11:45:01;;;;;;;12.20;3.57;;;6.40;99.90;;;;;;5011801;28;20866;-52
2022/01/28 11:47:29;;;;;;;11.60;3.73;;;6.50;95.50;;;;;;5031256;28;20497;-51
2022/01/28 11:49:59;;;;;;;11.97;3.47;;;7.00;99.90;;;;;;5032208;28;20479;-52
2022/01/28 11:52:29;;;;;;;11.57;3.40;;;7.40;99.90;;;;;;5031615;28;20508;-52
2022/01/28 11:55:18;;;;;;;12.67;3.20;;;7.50;99.90;;;;;;5031703;28;20459;-52
2022/01/28 11:57:51;;;;;;;10.47;3.87;;;7.40;99.90;;;;;;5029320;28;20517;-52
2022/01/28 12:00:22;;;;;;;10.47;3.33;;;7.40;99.90;;;;;;5031979;28;20452;-52
2022/01/28 12:02:51;;;;;;;8.67;3.27;;;7.30;99.90;;;;;;5030285;28;20487;-52
2022/01/28 12:05:52;;;;;;;11.80;4.37;;;7.10;99.90;;;;;;5028382;28;20465;-52
2022/01/28 12:08:20;;;;;;;22.87;4.30;;;7.00;99.90;;;;;;5020823;28;20505;-52
2022/01/28 12:10:50;;;;;;;13.77;3.00;;;7.10;99.90;;;;;;5024698;28;20455;-53
2022/01/28 12:13:18;;;;;;;11.77;3.50;;;7.10;99.90;;;;;;5029458;28;20486;-53
2022/01/28 12:16:11;;;;;;;5.53;3.50;;;7.10;99.90;;;;;;5029609;28;20574;-52
2022/01/28 12:18:49;;;;;;;8.97;3.00;;;7.20;99.90;;;;;;5019860;28;20466;-53
2022/01/28 12:21:18;;;;;;;20.73;7.73;;;7.10;99.90;;;;;;5025892;28;20486;-52
2022/01/28 12:23:46;;;;;;;11.80;3.60;;;6.80;99.90;;;;;;5028838;28;20573;-52
2022/01/28 12:26:17;;;;;;;7.50;3.03;;;6.90;99.90;;;;;;5028802;28;20506;-52
2022/01/28 12:28:53;;;;;;;6.93;2.37;;;6.70;99.90;;;;;;5031043;28;20443;-52
2022/01/28 12:31:23;;;;;;;7.10;3.00;;;7.70;99.90;;;;;;5031063;28;20956;-52
2022/01/28 12:33:51;;;;;;;6.33;2.50;;;8.40;99.90;;;;;;5026992;28;20557;-52
2022/01/28 12:36:22;;;;;;;7.70;2.67;;;7.90;99.90;;;;;;5030530;28;20447;-52
2022/01/28 12:38:59;;;;;;;16.13;3.77;;;8.30;99.90;;;;;;5028189;28;20471;-52
2022/01/28 12:41:30;;;;;;;12.07;3.70;;;8.40;99.90;;;;;;5025774;28;20490;-53
2022/01/28 12:43:56;;;;;;;8.43;3.13;;;8.40;99.90;;;;;;5030491;28;20517;-52
2022/01/28 12:46:25;;;;;;;9.83;3.30;;;8.60;99.90;;;;;;5037521;28;20512;-53
2022/01/28 12:48:53;;;;;;;9.10;3.20;;;8.50;99.90;;;;;;5031515;28;20508;-52
2022/01/28 12:51:21;;;;;;;10.60;3.10;;;9.10;99.90;;;;;;5028948;28;20490;-52
2022/01/28 12:53:54;;;;;;;5.83;2.70;;;8.70;99.90;;;;;;5029595;28;20569;-52
2022/01/28 12:56:30;;;;;;;6.83;2.90;;;8.00;99.90;;;;;;5030134;28;20490;-53
2022/01/28 12:58:56;;;;;;;12.20;2.70;;;7.50;99.90;;;;;;5024457;28;20549;-52
2022/01/28 13:01:23;;;;;;;7.50;2.60;;;7.50;99.90;;;;;;5029464;28;20566;-52
2022/01/28 13:04:03;;;;;;;11.23;3.20;;;7.60;99.90;;;;;;5030817;28;20562;-52
2022/01/28 13:06:42;;;;;;;6.57;3.37;;;7.40;99.90;;;;;;5028236;28;20467;-52
2022/01/28 13:09:14;;;;;;;11.03;3.43;;;7.60;99.90;;;;;;5029506;28;20470;-52
2022/01/28 13:11:44;;;;;;;7.00;3.60;;;7.80;99.90;;;;;;5025668;28;20547;-53
2022/01/28 13:14:12;;;;;;;11.60;2.40;;;8.60;99.90;;;;;;5021511;28;20548;-53
2022/01/28 13:16:40;;;;;;;4.43;2.10;;;8.20;99.90;;;;;;5022110;28;20546;-52
2022/01/28 13:19:08;;;;;;;6.40;2.17;;;7.90;99.90;;;;;;5022100;28;20558;-52
2022/01/28 13:21:35;;;;;;;6.03;2.50;;;8.20;99.90;;;;;;5021833;28;20939;-53
2022/01/28 13:24:14;;;;;;;6.60;1.93;;;8.60;99.90;;;;;;5037142;22;21050;-52
2022/01/28 13:26:56;;;;;;;8.70;2.93;;;8.30;99.90;;;;;;5024856;28;20498;-52
2022/01/28 13:29:33;;;;;;;5.17;2.47;;;8.80;99.90;;;;;;5017102;28;20851;-51
2022/01/28 13:32:01;;;;;;;4.00;1.93;;;9.80;99.90;;;;;;5020895;28;20462;-52
2022/01/28 13:34:28;;;;;;;4.77;2.07;;;9.20;99.90;;;;;;5006807;28;20482;-51
2022/01/28 13:36:57;;;;;;;3.83;2.30;;;9.20;99.90;;;;;;5008714;28;20889;-50
2022/01/28 13:39:28;;;;;;;7.33;2.30;;;9.90;99.90;;;;;;5009332;28;20444;-52
2022/01/28 13:42:12;;;;;;;9.67;2.57;;;9.50;99.90;;;;;;5008917;28;20483;-51
2022/01/28 13:44:42;;;;;;;5.27;2.07;;;9.60;99.90;;;;;;5006299;28;20466;-51